createdAt,value
2022-12-19T00:01:37.886Z,19.80
2022-12-19T00:04:08.795Z,20.60
2022-12-19T00:06:40.904Z,21.90
2022-12-19T00:09:11.817Z,19.83
2022-12-19T00:11:38.952Z,19.77
2022-12-19T00:14:06.698Z,19.60
2022-12-19T00:16:33.647Z,20.63
2022-12-19T00:19:01.400Z,20.33
2022-12-19T00:21:30.841Z,18.87
2022-12-19T00:24:00.923Z,19.13
2022-12-19T00:26:28.959Z,19.67
2022-12-19T00:28:58.506Z,19.03
2022-12-19T00:31:27.589Z,20.13
2022-12-19T00:33:54.712Z,21.13
2022-12-19T00:36:27.205Z,19.47
2022-12-19T00:38:57.311Z,19.80
2022-12-19T00:41:26.583Z,20.13
2022-12-19T00:43:59.830Z,20.03
2022-12-19T00:46:28.491Z,19.50
2022-12-19T00:48:55.716Z,19.63
2022-12-19T00:51:28.402Z,19.23
2022-12-19T00:53:57.017Z,20.03
2022-12-19T00:56:27.016Z,21.17
2022-12-19T00:58:54.916Z,20.77
2022-12-19T01:01:25.355Z,19.50
2022-12-19T01:04:26.642Z,19.80
2022-12-19T01:06:39.417Z,20.10
2022-12-19T01:09:12.024Z,20.73
2022-12-19T01:11:57.594Z,19.80
2022-12-19T01:14:24.336Z,20.77
2022-12-19T01:16:52.014Z,21.53
2022-12-19T01:19:19.944Z,20.20
2022-12-19T01:21:46.853Z,20.93
2022-12-19T01:24:15.836Z,21.17
2022-12-19T01:26:46.059Z,19.50
2022-12-19T01:29:12.827Z,20.77
2022-12-19T01:31:39.774Z,20.83
2022-12-19T01:34:06.799Z,20.23
2022-12-19T01:36:34.791Z,20.67
2022-12-19T01:39:06.530Z,21.17
2022-12-19T01:41:33.318Z,20.33
2022-12-19T01:44:05.773Z,19.80
2022-12-19T01:46:41.569Z,20.53
2022-12-19T01:49:16.216Z,20.83
2022-12-19T01:51:48.352Z,19.23
2022-12-19T01:54:19.960Z,20.10
2022-12-19T01:56:54.423Z,20.40
2022-12-19T01:59:26.610Z,20.33
2022-12-19T02:02:01.218Z,18.17
2022-12-19T02:04:32.263Z,21.27
2022-12-19T02:07:08.658Z,19.10
2022-12-19T02:09:43.593Z,18.53
2022-12-19T02:12:10.443Z,18.17
2022-12-19T02:14:37.310Z,19.23
2022-12-19T02:17:13.836Z,19.17
2022-12-19T02:19:40.598Z,18.73
2022-12-19T02:22:34.826Z,19.33
2022-12-19T02:25:10.555Z,17.60
2022-12-19T02:27:40.686Z,18.23
2022-12-19T02:30:38.331Z,18.17
2022-12-19T02:33:28.327Z,18.57
2022-12-19T02:36:01.861Z,19.13
2022-12-19T02:38:40.881Z,16.53
2022-12-19T02:41:19.103Z,19.87
2022-12-19T02:43:49.681Z,18.53
2022-12-19T02:46:20.799Z,18.40
2022-12-19T02:48:48.672Z,19.43
2022-12-19T02:51:15.896Z,17.97
2022-12-19T02:53:43.008Z,16.87
2022-12-19T02:56:33.697Z,17.63
2022-12-19T02:59:27.999Z,18.60
2022-12-19T03:02:00.238Z,18.60
2022-12-19T03:04:29.929Z,18.77
2022-12-19T03:07:33.527Z,19.63
2022-12-19T03:10:19.085Z,17.73
2022-12-19T03:12:51.985Z,17.63
2022-12-19T03:15:20.880Z,17.73
2022-12-19T03:17:48.455Z,18.03
2022-12-19T03:20:47.614Z,19.43
2022-12-19T03:23:15.230Z,17.80
2022-12-19T03:25:46.203Z,17.90
2022-12-19T03:28:20.635Z,18.23
2022-12-19T03:30:49.041Z,19.27
2022-12-19T03:33:18.486Z,17.83
2022-12-19T03:35:46.950Z,19.63
2022-12-19T03:38:15.545Z,18.47
2022-12-19T03:40:46.128Z,19.23
2022-12-19T03:43:16.401Z,18.70
2022-12-19T03:46:03.948Z,18.40
2022-12-19T03:48:47.355Z,19.03
2022-12-19T03:51:35.838Z,19.43
2022-12-19T03:54:17.231Z,18.07
2022-12-19T03:57:04.871Z,17.57
2022-12-19T03:59:38.009Z,18.37
2022-12-19T04:02:05.644Z,18.17
2022-12-19T04:04:37.922Z,19.87
2022-12-19T04:07:07.064Z,17.63
2022-12-19T04:09:35.538Z,18.60
2022-12-19T04:12:08.621Z,18.93
2022-12-19T04:14:40.053Z,18.13
2022-12-19T04:17:27.109Z,20.83
2022-12-19T04:20:05.658Z,19.80
2022-12-19T04:22:34.818Z,19.70
2022-12-19T04:25:03.190Z,18.53
2022-12-19T04:27:35.256Z,20.47
2022-12-19T04:30:03.816Z,19.40
2022-12-19T04:32:34.437Z,20.03
2022-12-19T04:35:01.698Z,20.73
2022-12-19T04:37:29.657Z,21.33
2022-12-19T04:39:56.459Z,20.57
2022-12-19T04:42:23.397Z,21.83
2022-12-19T04:44:50.153Z,20.40
2022-12-19T04:47:17.013Z,20.57
2022-12-19T04:49:44.189Z,21.43
2022-12-19T04:52:10.964Z,20.67
2022-12-19T04:54:38.160Z,21.37
2022-12-19T04:57:04.970Z,20.90
2022-12-19T04:59:33.357Z,21.70
2022-12-19T05:02:00.320Z,20.77
2022-12-19T05:04:27.394Z,21.93
2022-12-19T05:06:54.604Z,21.83
2022-12-19T05:09:21.679Z,22.27
2022-12-19T05:11:48.802Z,22.10
2022-12-19T05:14:15.808Z,22.37
2022-12-19T05:16:42.825Z,21.87
2022-12-19T05:19:09.765Z,22.60
2022-12-19T05:21:36.983Z,22.17
2022-12-19T05:24:04.165Z,21.87
2022-12-19T05:26:31.207Z,21.73
2022-12-19T05:28:58.150Z,22.63
2022-12-19T05:31:25.189Z,24.10
2022-12-19T05:33:52.310Z,23.20
2022-12-19T05:36:20.199Z,23.03
2022-12-19T05:38:47.144Z,23.43
2022-12-19T05:41:20.124Z,23.83
2022-12-19T05:43:51.226Z,22.53
2022-12-19T05:46:18.625Z,24.07
2022-12-19T05:48:45.539Z,23.90
2022-12-19T05:51:12.888Z,24.07
2022-12-19T05:53:41.488Z,22.83
2022-12-19T05:56:10.993Z,24.30
2022-12-19T05:58:38.759Z,22.43
2022-12-19T06:01:08.564Z,24.03
2022-12-19T06:03:35.576Z,25.23
2022-12-19T06:06:07.271Z,24.70
2022-12-19T06:08:34.330Z,23.00
2022-12-19T06:11:02.408Z,22.37
2022-12-19T06:13:30.265Z,24.57
2022-12-19T06:16:10.719Z,22.93
2022-12-19T06:18:42.876Z,23.53
2022-12-19T06:21:14.617Z,22.67
2022-12-19T06:23:42.301Z,22.77
2022-12-19T06:26:15.543Z,23.80
2022-12-19T06:28:45.924Z,23.10
2022-12-19T06:31:13.383Z,22.50
2022-12-19T06:33:40.376Z,22.70
2022-12-19T06:36:10.190Z,21.93
2022-12-19T06:38:37.153Z,21.23
2022-12-19T06:41:22.969Z,22.43
2022-12-19T06:43:53.388Z,22.80
2022-12-19T06:46:21.004Z,21.70
2022-12-19T06:48:48.047Z,21.27
2022-12-19T06:51:15.695Z,21.60
2022-12-19T06:53:44.014Z,23.23
2022-12-19T06:56:14.224Z,22.10
2022-12-19T06:58:41.377Z,22.03
2022-12-19T07:01:08.411Z,23.00
2022-12-19T07:03:40.220Z,20.87
2022-12-19T07:06:07.799Z,21.73
2022-12-19T07:08:34.689Z,22.93
2022-12-19T07:11:02.409Z,21.73
2022-12-19T07:13:29.225Z,21.23
2022-12-19T07:16:01.381Z,19.90
2022-12-19T07:18:31.437Z,20.37
2022-12-19T07:20:58.297Z,20.20
2022-12-19T07:23:25.165Z,19.87
2022-12-19T07:25:52.184Z,20.80
2022-12-19T07:28:19.367Z,20.17
2022-12-19T07:30:46.305Z,20.20
2022-12-19T07:33:18.301Z,19.53
2022-12-19T07:35:48.005Z,19.33
2022-12-19T07:38:18.119Z,19.17
2022-12-19T07:40:45.042Z,18.40
2022-12-19T07:43:12.005Z,20.00
2022-12-19T07:45:39.563Z,19.57
2022-12-19T07:48:07.537Z,18.07
2022-12-19T07:50:34.675Z,19.10
2022-12-19T07:53:01.908Z,18.40
2022-12-19T07:55:29.107Z,17.83
2022-12-19T07:57:56.134Z,19.27
2022-12-19T08:00:23.366Z,19.27
2022-12-19T08:02:50.609Z,18.13
2022-12-19T08:05:18.058Z,18.33
2022-12-19T08:07:45.033Z,17.37
2022-12-19T08:10:14.701Z,18.67
2022-12-19T08:12:41.986Z,17.60
2022-12-19T08:15:11.258Z,19.20
2022-12-19T08:17:41.141Z,18.23
2022-12-19T08:20:09.408Z,16.93
2022-12-19T08:22:36.274Z,18.50
2022-12-19T08:25:03.704Z,16.50
2022-12-19T08:27:30.584Z,17.00
2022-12-19T08:29:57.437Z,19.40
2022-12-19T08:32:24.230Z,18.47
2022-12-19T08:34:51.331Z,17.87
2022-12-19T08:37:18.320Z,17.67
2022-12-19T08:39:45.502Z,17.70
2022-12-19T08:42:12.395Z,18.07
2022-12-19T08:44:39.340Z,18.00
2022-12-19T08:47:06.371Z,18.17
2022-12-19T08:49:33.375Z,17.87
2022-12-19T08:52:00.307Z,16.63
2022-12-19T08:54:27.327Z,17.13
2022-12-19T08:56:54.175Z,17.47
2022-12-19T08:59:30.436Z,16.17
2022-12-19T09:01:59.593Z,17.27
2022-12-19T09:05:59.778Z,16.20
2022-12-19T09:07:15.528Z,16.70
2022-12-19T09:09:43.535Z,16.43
2022-12-19T09:12:10.581Z,15.83
2022-12-19T09:14:37.519Z,15.33
2022-12-19T09:17:05.005Z,16.70
2022-12-19T09:19:32.282Z,21.63
2022-12-19T09:22:00.510Z,17.00
2022-12-19T09:24:27.568Z,16.63
2022-12-19T09:26:54.408Z,15.83
2022-12-19T09:29:22.189Z,16.40
2022-12-19T09:31:55.576Z,16.50
2022-12-19T09:34:27.435Z,15.77
2022-12-19T09:37:03.157Z,17.33
2022-12-19T09:39:33.330Z,15.63
2022-12-19T09:42:21.106Z,17.43
2022-12-19T09:45:38.526Z,16.20
2022-12-19T09:48:24.036Z,16.33
2022-12-19T09:51:15.304Z,17.63
2022-12-19T09:53:54.613Z,17.03
2022-12-19T09:56:23.978Z,14.80
2022-12-19T09:58:58.371Z,16.87
2022-12-19T10:01:36.245Z,15.60
2022-12-19T10:04:12.127Z,15.37
2022-12-19T10:07:11.271Z,14.87
2022-12-19T10:11:32.612Z,16.57
2022-12-19T10:12:50.959Z,15.67
2022-12-19T10:15:56.159Z,17.73
2022-12-19T10:18:38.160Z,15.93
2022-12-19T10:21:11.686Z,14.57
2022-12-19T10:24:02.839Z,15.00
2022-12-19T10:26:37.643Z,14.83
2022-12-19T10:29:15.814Z,15.67
2022-12-19T10:32:00.782Z,16.70
2022-12-19T10:34:40.792Z,15.17
2022-12-19T10:37:38.482Z,15.20
2022-12-19T10:40:27.617Z,16.10
2022-12-19T10:43:30.137Z,14.90
2022-12-19T10:46:04.180Z,20.07
2022-12-19T10:48:31.742Z,14.60
2022-12-19T10:51:00.664Z,14.70
2022-12-19T10:53:34.436Z,14.57
2022-12-19T10:56:12.555Z,12.90
2022-12-19T10:58:44.393Z,13.27
2022-12-19T11:01:26.244Z,13.60
2022-12-19T11:04:26.486Z,13.43
2022-12-19T11:07:11.395Z,14.23
2022-12-19T11:09:52.063Z,12.13
2022-12-19T11:16:46.296Z,13.37
2022-12-19T11:21:27.074Z,14.43
2022-12-19T11:26:24.805Z,13.83
2022-12-19T11:29:54.186Z,14.30
2022-12-19T11:30:46.079Z,13.77
2022-12-19T11:30:46.938Z,12.80
2022-12-19T11:32:45.444Z,13.80
2022-12-19T11:35:25.451Z,13.60
2022-12-19T11:38:06.108Z,13.20
2022-12-19T11:40:56.285Z,14.83
2022-12-19T11:43:46.085Z,13.87
2022-12-19T11:46:40.659Z,13.83
2022-12-19T11:49:32.466Z,13.00
2022-12-19T11:53:02.085Z,13.13
2022-12-19T11:55:25.792Z,12.90
2022-12-19T11:57:54.451Z,13.30
2022-12-19T12:00:24.498Z,14.67
2022-12-19T12:03:06.945Z,13.83
2022-12-19T12:05:43.986Z,13.43
2022-12-19T12:10:36.880Z,12.50
2022-12-19T12:15:13.581Z,12.60
2022-12-19T12:25:47.074Z,12.30
2022-12-19T12:31:01.414Z,12.93
2022-12-19T12:31:04.759Z,12.90
2022-12-19T12:31:28.656Z,12.07
2022-12-19T12:31:48.867Z,13.00
2022-12-19T12:32:01.911Z,11.40
2022-12-19T12:38:10.925Z,12.00
2022-12-19T12:44:11.943Z,14.23
2022-12-19T12:46:50.346Z,14.03
2022-12-19T12:53:19.798Z,10.87
2022-12-19T12:56:17.332Z,11.63
2022-12-19T12:59:49.651Z,11.73
2022-12-19T13:10:32.368Z,10.33
2022-12-19T13:13:27.012Z,9.63
2022-12-19T13:16:17.435Z,10.70
2022-12-19T13:19:48.601Z,10.10
2022-12-19T13:25:57.356Z,10.67
2022-12-19T13:29:22.265Z,10.43
2022-12-19T13:32:22.430Z,9.67
2022-12-19T13:36:48.869Z,9.50
2022-12-19T13:39:56.902Z,9.60
2022-12-19T13:42:50.434Z,11.30
2022-12-19T13:45:37.153Z,9.83
2022-12-19T13:51:31.967Z,10.73
2022-12-19T13:54:01.161Z,9.73
2022-12-19T13:56:45.797Z,9.73
2022-12-19T13:59:21.674Z,8.77
2022-12-19T14:02:20.839Z,9.47
2022-12-19T14:04:51.913Z,9.83
2022-12-19T14:07:47.870Z,8.23
2022-12-19T14:11:27.404Z,9.77
2022-12-19T14:13:41.211Z,8.50
2022-12-19T14:16:35.018Z,9.10
2022-12-19T14:19:30.172Z,8.90
2022-12-19T14:22:20.649Z,8.77
2022-12-19T14:25:45.123Z,8.37
2022-12-19T14:28:18.323Z,8.90
2022-12-19T14:30:59.530Z,8.53
2022-12-19T14:33:58.901Z,8.57
2022-12-19T14:36:31.435Z,8.03
2022-12-19T14:39:23.669Z,8.33
2022-12-19T14:42:07.262Z,8.80
2022-12-19T14:52:25.896Z,7.90
2022-12-19T14:54:10.123Z,8.63
2022-12-19T14:54:33.975Z,10.70
2022-12-19T14:54:34.714Z,8.43
2022-12-19T14:56:57.575Z,9.23
2022-12-19T14:59:05.898Z,8.00
2022-12-19T15:01:35.032Z,8.57
2022-12-19T15:04:51.294Z,9.07
2022-12-19T15:07:07.333Z,10.33
2022-12-19T15:11:04.812Z,8.53
2022-12-19T15:14:52.403Z,8.37
2022-12-19T15:16:07.427Z,7.47
2022-12-19T15:18:39.599Z,8.77
2022-12-19T15:21:12.762Z,7.67
2022-12-19T15:23:39.913Z,7.70
2022-12-19T15:26:16.504Z,8.47
2022-12-19T15:28:55.514Z,7.83
2022-12-19T15:31:24.384Z,8.17
2022-12-19T15:36:38.578Z,8.33
2022-12-19T15:39:05.548Z,8.37
2022-12-19T15:41:32.515Z,7.40
2022-12-19T15:44:04.103Z,8.75
2022-12-19T15:46:32.680Z,7.07
2022-12-19T15:49:02.234Z,7.30
2022-12-19T15:51:29.136Z,7.70
2022-12-19T15:54:04.182Z,7.47
2022-12-19T15:56:52.655Z,7.17
2022-12-19T15:59:22.492Z,7.60
2022-12-19T16:01:51.550Z,7.40
2022-12-19T16:04:19.055Z,7.43
2022-12-19T16:06:48.750Z,6.83
2022-12-19T16:09:27.703Z,7.00
2022-12-19T16:11:55.066Z,7.57
2022-12-19T16:14:22.888Z,6.67
2022-12-19T16:16:54.455Z,7.03
2022-12-19T16:19:30.513Z,5.83
2022-12-19T16:21:58.355Z,6.63
2022-12-19T16:24:26.090Z,6.00
2022-12-19T16:26:56.302Z,6.67
2022-12-19T16:29:29.136Z,6.67
2022-12-19T16:31:56.537Z,6.50
2022-12-19T16:34:24.561Z,6.67
2022-12-19T16:36:52.160Z,6.97
2022-12-19T16:39:18.998Z,6.70
2022-12-19T16:41:47.314Z,5.87
2022-12-19T16:44:23.057Z,6.37
2022-12-19T16:46:51.697Z,6.30
2022-12-19T16:49:25.627Z,6.27
2022-12-19T16:51:52.722Z,6.87
2022-12-19T16:54:20.180Z,6.47
2022-12-19T16:56:49.326Z,5.87
2022-12-19T16:59:26.608Z,6.40
2022-12-19T17:01:54.178Z,6.97
2022-12-19T17:04:23.370Z,6.33
2022-12-19T17:06:52.746Z,6.03
2022-12-19T17:09:22.215Z,7.70
2022-12-19T17:11:52.957Z,6.40
2022-12-19T17:14:22.939Z,6.53
2022-12-19T17:16:55.336Z,6.60
2022-12-19T17:19:32.209Z,6.33
2022-12-19T17:21:59.163Z,6.93
2022-12-19T17:24:26.099Z,6.63
2022-12-19T17:26:53.236Z,6.80
2022-12-19T17:29:20.117Z,7.60
2022-12-19T17:31:47.890Z,7.30
2022-12-19T17:34:24.389Z,7.80
2022-12-19T17:36:51.390Z,6.37
2022-12-19T17:39:22.360Z,7.60
2022-12-19T17:41:50.564Z,7.07
2022-12-19T17:44:17.929Z,7.23
2022-12-19T17:46:46.075Z,6.70
2022-12-19T17:49:26.349Z,7.70
2022-12-19T17:51:54.473Z,8.43
2022-12-19T17:54:22.413Z,7.47
2022-12-19T17:56:50.358Z,7.63
2022-12-19T17:59:17.297Z,7.33
2022-12-19T18:01:47.151Z,7.70
2022-12-19T18:04:17.062Z,7.20
2022-12-19T18:06:44.955Z,6.73
2022-12-19T18:09:20.888Z,7.40
2022-12-19T18:11:48.969Z,6.90
2022-12-19T18:14:16.977Z,7.57
2022-12-19T18:16:45.098Z,8.07
2022-12-19T18:19:21.198Z,7.60
2022-12-19T18:21:48.582Z,6.67
2022-12-19T18:24:18.508Z,10.63
2022-12-19T18:26:45.694Z,6.77
2022-12-19T18:29:13.306Z,7.70
2022-12-19T18:31:46.498Z,7.70
2022-12-19T18:34:22.727Z,7.07
2022-12-19T18:36:50.201Z,7.27
2022-12-19T18:39:29.012Z,7.43
2022-12-19T18:41:55.921Z,7.40
2022-12-19T18:44:23.432Z,6.43
2022-12-19T18:46:51.685Z,6.87
2022-12-19T18:49:19.379Z,6.80
2022-12-19T18:51:46.700Z,6.07
2022-12-19T18:54:19.360Z,6.20
2022-12-19T18:56:46.700Z,6.37
2022-12-19T18:59:14.353Z,6.27
2022-12-19T19:01:44.056Z,7.27
2022-12-19T19:04:13.380Z,6.90
2022-12-19T19:06:46.574Z,6.63
2022-12-19T19:09:18.258Z,6.77
2022-12-19T19:11:45.184Z,6.40
2022-12-19T19:14:12.462Z,6.63
2022-12-19T19:16:40.115Z,6.50
2022-12-19T19:19:10.624Z,6.23
2022-12-19T19:21:38.632Z,6.10
2022-12-19T19:24:34.870Z,7.47
2022-12-19T19:27:02.550Z,5.33
2022-12-19T19:29:29.402Z,5.57
2022-12-19T19:31:56.343Z,5.90
2022-12-19T19:34:31.585Z,5.37
2022-12-19T19:37:03.889Z,4.77
2022-12-19T19:39:33.710Z,5.70
2022-12-19T19:42:01.290Z,5.50
2022-12-19T19:44:28.831Z,5.23
2022-12-19T19:46:56.002Z,4.80
2022-12-19T19:49:23.605Z,5.67
2022-12-19T19:51:51.643Z,11.50
2022-12-19T19:54:21.292Z,6.13
2022-12-19T19:56:48.895Z,5.30
2022-12-19T19:59:15.815Z,6.10
2022-12-19T20:01:42.747Z,5.20
2022-12-19T20:04:09.919Z,5.47
2022-12-19T20:06:36.998Z,5.60
2022-12-19T20:09:04.188Z,4.93
2022-12-19T20:11:31.061Z,6.57
2022-12-19T20:13:57.967Z,5.13
2022-12-19T20:16:25.276Z,5.17
2022-12-19T20:18:53.221Z,5.57
2022-12-19T20:21:21.222Z,5.53
2022-12-19T20:23:48.203Z,5.53
2022-12-19T20:26:16.526Z,5.17
2022-12-19T20:28:50.283Z,5.27
2022-12-19T20:31:22.437Z,5.27
2022-12-19T20:33:50.799Z,5.00
2022-12-19T20:36:18.282Z,5.37
2022-12-19T20:38:45.555Z,5.73
2022-12-19T20:41:12.954Z,5.50
2022-12-19T20:43:39.811Z,5.57
2022-12-19T20:46:15.544Z,5.40
2022-12-19T20:48:43.223Z,5.30
2022-12-19T20:51:11.031Z,5.27
2022-12-19T20:53:39.319Z,5.30
2022-12-19T20:56:07.831Z,5.13
2022-12-19T20:58:36.200Z,5.33
2022-12-19T21:01:14.929Z,5.13
2022-12-19T21:03:43.455Z,5.20
2022-12-19T21:06:12.260Z,5.53
2022-12-19T21:08:40.077Z,5.00
2022-12-19T21:11:08.464Z,5.33
2022-12-19T21:13:36.695Z,5.10
2022-12-19T21:16:08.953Z,4.90
2022-12-19T21:18:41.435Z,4.83
2022-12-19T21:21:11.473Z,5.50
2022-12-19T21:23:38.312Z,5.00
2022-12-19T21:26:05.408Z,5.00
2022-12-19T21:28:32.975Z,4.60
2022-12-19T21:31:03.449Z,7.40
2022-12-19T21:33:30.628Z,6.60
2022-12-19T21:35:57.535Z,4.27
2022-12-19T21:38:24.757Z,5.27
2022-12-19T21:40:51.553Z,4.37
2022-12-19T21:43:18.491Z,3.73
2022-12-19T21:45:45.342Z,3.97
2022-12-19T21:48:12.200Z,5.87
2022-12-19T21:50:39.078Z,4.00
2022-12-19T21:53:05.956Z,4.80
2022-12-19T21:55:32.837Z,3.43
2022-12-19T21:58:00.131Z,3.90
2022-12-19T22:00:27.030Z,4.00
2022-12-19T22:03:13.419Z,4.47
2022-12-19T22:05:41.012Z,4.33
2022-12-19T22:08:10.729Z,4.60
2022-12-19T22:10:39.757Z,4.13
2022-12-19T22:13:06.629Z,3.60
2022-12-19T22:15:35.870Z,3.90
2022-12-19T22:18:02.657Z,3.70
2022-12-19T22:20:30.186Z,3.37
2022-12-19T22:22:56.970Z,3.77
2022-12-19T22:25:23.831Z,3.30
2022-12-19T22:27:50.797Z,3.40
2022-12-19T22:30:17.658Z,3.87
2022-12-19T22:32:44.583Z,4.27
2022-12-19T22:35:11.455Z,3.33
2022-12-19T22:37:38.396Z,4.23
2022-12-19T22:40:06.119Z,3.33
2022-12-19T22:42:34.128Z,3.73
2022-12-19T22:45:00.964Z,3.60
2022-12-19T22:47:27.792Z,4.23
2022-12-19T22:49:54.624Z,3.60
2022-12-19T22:52:21.472Z,3.67
2022-12-19T22:54:48.381Z,3.20
2022-12-19T22:57:15.622Z,3.73
2022-12-19T22:59:42.455Z,3.60
2022-12-19T23:02:09.897Z,3.83
2022-12-19T23:04:36.889Z,3.97
2022-12-19T23:07:04.246Z,3.70
2022-12-19T23:09:32.754Z,3.07
2022-12-19T23:11:59.532Z,3.40
2022-12-19T23:14:26.344Z,2.90
2022-12-19T23:16:53.233Z,4.00
2022-12-19T23:19:20.128Z,2.80
2022-12-19T23:21:47.396Z,3.00
2022-12-19T23:24:14.389Z,2.60
2022-12-19T23:26:41.594Z,3.30
2022-12-19T23:29:11.235Z,2.67
2022-12-19T23:31:41.805Z,2.83
2022-12-19T23:34:08.832Z,3.17
2022-12-19T23:37:09.717Z,2.60
2022-12-19T23:39:22.391Z,2.97
2022-12-19T23:41:49.158Z,2.57
2022-12-19T23:44:16.115Z,2.43
2022-12-19T23:46:45.726Z,2.90
2022-12-19T23:49:12.554Z,2.20
2022-12-19T23:51:39.410Z,2.87
2022-12-19T23:54:06.220Z,2.07
2022-12-19T23:56:33.185Z,2.70
2022-12-19T23:59:00.352Z,2.47
